This is the latest recevied weather packets stored in our database for station/object N4DLW-3. If no packets are shown the sender has not sent any weather packets the latest 1 day(s).
| Time | Temp. | Humidity | Pressure | Rain* | Wind** | Luminosity | Snow |
|---|---|---|---|---|---|---|---|
| 1778104177 | 30.56° C | 67% | 1014.6 hPa | 0 mm | - | - | - |
| 1778103277 | 30.56° C | 67% | 1014.7 hPa | 0 mm | - | - | - |
| 1778102684 | 30.56° C | 68% | 1014.5 hPa | 0 mm | - | - | - |
| 1778102088 | 30.56° C | 67% | 1014.5 hPa | 0 mm | - | - | - |
| 1778101776 | 30.56° C | 68% | 1014.5 hPa | 0 mm | - | - | - |
| 1778101491 | 30.56° C | 67% | 1014.4 hPa | 0 mm | - | - | - |
| 1778100293 | 30.56° C | 67% | 1014.6 hPa | 0 mm | - | - | - |
| 1778099685 | 30.56° C | 67% | 1014.5 hPa | 0 mm | - | - | - |
| 1778099380 | 30.56° C | 66% | 1014.6 hPa | 0 mm | - | - | - |
| 1778099087 | 30.56° C | 65% | 1014.6 hPa | 0 mm | - | - | - |
| 1778098471 | 30.56° C | 66% | 1014.7 hPa | 0 mm | - | - | - |
| 1778098185 | 30.56° C | 65% | 1014.7 hPa | 0 mm | - | - | - |
| 1778097587 | 30.56° C | 66% | 1014.6 hPa | 0 mm | - | - | - |
| 1778097273 | 30° C | 68% | 1014.6 hPa | 0 mm | - | - | - |
| 1778096988 | 30° C | 66% | 1014.6 hPa | 0 mm | - | - | - |
| 1778094887 | 30.56° C | 66% | 1015 hPa | 0 mm | - | - | - |
| 1778093373 | 30.56° C | 63% | 1015.1 hPa | 0 mm | - | - | - |
| 1778092778 | 31.11° C | 63% | 1015.3 hPa | 0 mm | - | - | - |
| 1778092178 | 31.11° C | 61% | 1015.4 hPa | 0 mm | - | - | - |
| 1778091886 | 31.11° C | 60% | 1015.5 hPa | 0 mm | - | - | - |
| 1778090984 | 32.22° C | 49% | 1015.6 hPa | 0 mm | - | - | - |
| 1778089789 | 33.33° C | 49% | 1015.8 hPa | 0 mm | - | - | - |
| 1778089480 | 33.33° C | 50% | 1015.9 hPa | 0 mm | - | - | - |
| 1778088880 | 33.89° C | 47% | 1016 hPa | 0 mm | - | - | - |
| 1778088283 | 33.89° C | 45% | 1016.1 hPa | 0 mm | - | - | - |
* Rain latest hour (hover to see other rain measurements)
** Current wind speed in m/s (hover to see current wind gust speed)